createdAt,value
2022-07-29T00:02:29.765Z,62.55
2022-07-29T00:04:56.557Z,56.83
2022-07-29T00:07:23.306Z,53.67
2022-07-29T00:09:52.075Z,68.10
2022-07-29T00:12:25.265Z,58.15
2022-07-29T00:14:54.479Z,58.22
2022-07-29T00:17:21.258Z,56.22
2022-07-29T00:19:48.053Z,67.40
2022-07-29T00:22:14.970Z,48.53
2022-07-29T00:24:41.886Z,67.20
2022-07-29T00:27:08.663Z,62.35
2022-07-29T00:29:35.687Z,56.15
2022-07-29T00:32:03.599Z,56.05
2022-07-29T00:34:50.458Z,56.30
2022-07-29T00:37:17.321Z,58.72
2022-07-29T00:39:44.189Z,55.08
2022-07-29T00:42:11.206Z,62.17
2022-07-29T00:44:42.513Z,54.28
2022-07-29T00:47:11.653Z,49.53
2022-07-29T00:49:41.386Z,60.00
2022-07-29T00:52:10.952Z,45.35
2022-07-29T00:54:43.903Z,49.03
2022-07-29T00:57:11.999Z,49.13
2022-07-29T00:59:38.740Z,49.65
2022-07-29T01:02:05.718Z,47.92
2022-07-29T01:04:33.295Z,53.28
2022-07-29T01:07:03.205Z,46.53
2022-07-29T01:09:40.810Z,45.22
2022-07-29T01:12:20.354Z,52.55
2022-07-29T01:14:48.913Z,57.03
2022-07-29T01:17:24.122Z,49.00
2022-07-29T01:20:01.076Z,47.75
2022-07-29T01:23:37.808Z,61.08
2022-07-29T01:26:47.936Z,57.88
2022-07-29T01:29:36.236Z,61.00
2022-07-29T01:32:22.558Z,53.17
2022-07-29T01:35:09.951Z,49.05
2022-07-29T01:37:53.294Z,48.28
2022-07-29T01:40:46.237Z,55.30
2022-07-29T01:43:20.055Z,68.78
2022-07-29T01:45:54.843Z,62.20
2022-07-29T01:48:47.801Z,54.80
2022-07-29T01:51:33.383Z,53.40
2022-07-29T01:54:31.754Z,61.40
2022-07-29T01:57:00.890Z,66.35
2022-07-29T01:59:28.523Z,59.83
2022-07-29T02:01:58.836Z,56.65
2022-07-29T02:04:29.735Z,81.65
2022-07-29T02:07:03.190Z,64.70
2022-07-29T02:09:33.143Z,69.18
2022-07-29T02:12:02.206Z,74.50
2022-07-29T02:14:37.329Z,48.35
2022-07-29T02:17:04.516Z,51.17
2022-07-29T02:19:33.951Z,45.15
2022-07-29T02:22:02.202Z,40.38
2022-07-29T02:25:44.380Z,38.95
2022-07-29T02:28:12.919Z,90.10
2022-07-29T02:30:43.020Z,34.58
2022-07-29T02:33:14.024Z,63.58
2022-07-29T02:35:42.118Z,95.40
2022-07-29T02:38:32.386Z,55.95
2022-07-29T02:41:04.609Z,87.53
2022-07-29T02:43:33.761Z,127.07
2022-07-29T02:46:03.760Z,164.68
2022-07-29T02:48:42.725Z,237.48
2022-07-29T02:51:43.370Z,329.80
2022-07-29T02:54:20.650Z,489.35
2022-07-29T02:56:49.343Z,496.48
2022-07-29T02:59:19.403Z,501.33
2022-07-29T03:01:47.303Z,519.85
2022-07-29T03:04:15.798Z,459.23
2022-07-29T03:06:45.700Z,535.35
2022-07-29T03:09:14.238Z,573.72
2022-07-29T03:11:49.722Z,580.80
2022-07-29T03:14:20.392Z,585.78
2022-07-29T03:16:49.104Z,593.85
2022-07-29T03:19:17.241Z,562.00
2022-07-29T03:21:43.993Z,588.42
2022-07-29T03:24:11.166Z,654.80
2022-07-29T03:26:38.471Z,655.22
2022-07-29T03:29:05.230Z,689.53
2022-07-29T03:31:33.460Z,734.90
2022-07-29T03:34:00.553Z,710.05
2022-07-29T03:36:27.486Z,689.65
2022-07-29T03:38:55.463Z,784.05
2022-07-29T03:41:24.804Z,763.75
2022-07-29T03:43:54.571Z,999.90
2022-07-29T03:46:24.961Z,999.90
2022-07-29T03:48:57.365Z,717.55
2022-07-29T03:51:33.723Z,710.10
2022-07-29T03:54:09.837Z,706.53
2022-07-29T03:56:42.668Z,724.80
2022-07-29T03:59:10.589Z,729.22
2022-07-29T04:01:39.711Z,708.83
2022-07-29T04:04:06.746Z,697.50
2022-07-29T04:06:42.063Z,692.38
2022-07-29T04:09:10.170Z,701.25
2022-07-29T04:12:02.072Z,698.97
2022-07-29T04:14:26.210Z,701.85
2022-07-29T04:16:53.884Z,999.90
2022-07-29T04:19:20.663Z,999.90
2022-07-29T04:21:47.399Z,999.90
2022-07-29T04:24:14.491Z,999.90
2022-07-29T04:26:41.553Z,999.90
2022-07-29T04:29:08.376Z,999.90
2022-07-29T04:31:35.238Z,999.90
2022-07-29T04:34:02.083Z,999.90
2022-07-29T04:36:30.115Z,999.90
2022-07-29T04:38:57.161Z,999.90
2022-07-29T04:41:23.889Z,999.90
2022-07-29T04:44:01.798Z,999.90
2022-07-29T04:46:28.965Z,999.90
2022-07-29T04:48:56.025Z,999.90
2022-07-29T04:51:23.023Z,999.90
2022-07-29T04:53:49.798Z,999.90
2022-07-29T04:56:16.529Z,999.90
2022-07-29T04:58:43.267Z,999.90
2022-07-29T05:01:10.244Z,999.90
2022-07-29T05:03:37.086Z,999.90
2022-07-29T05:06:04.146Z,999.90
2022-07-29T05:08:30.883Z,999.90
2022-07-29T05:10:57.625Z,999.90
2022-07-29T05:13:24.489Z,999.90
2022-07-29T05:15:51.394Z,999.90
2022-07-29T05:18:18.170Z,999.90
2022-07-29T05:20:45.019Z,999.90
2022-07-29T05:23:13.667Z,999.90
2022-07-29T05:25:43.539Z,808.97
2022-07-29T05:28:12.447Z,757.80
2022-07-29T05:30:39.471Z,693.40
2022-07-29T05:33:06.273Z,728.80
2022-07-29T05:57:54.960Z,696.53
2022-07-29T06:00:21.687Z,758.85
2022-07-29T06:02:48.515Z,773.03
2022-07-29T06:05:17.341Z,999.90
2022-07-29T06:07:50.156Z,999.90
2022-07-29T06:10:18.407Z,999.90
2022-07-29T06:12:45.123Z,999.90
2022-07-29T06:15:11.846Z,999.90
2022-07-29T06:17:38.605Z,999.90
2022-07-29T06:20:27.014Z,999.90
2022-07-29T06:22:54.097Z,999.90
2022-07-29T06:25:20.938Z,999.90
2022-07-29T06:27:47.688Z,999.90
2022-07-29T06:30:14.620Z,999.90
2022-07-29T06:32:43.347Z,999.90
2022-07-29T06:35:37.809Z,999.90
2022-07-29T06:37:58.038Z,764.03
2022-07-29T06:40:45.877Z,623.92
2022-07-29T06:43:12.735Z,578.72
2022-07-29T06:45:42.201Z,604.63
2022-07-29T06:48:10.407Z,585.13
2022-07-29T06:50:37.240Z,581.55
2022-07-29T06:53:04.753Z,590.05
2022-07-29T06:55:31.615Z,495.23
2022-07-29T06:57:58.470Z,552.35
2022-07-29T07:00:25.274Z,550.22
2022-07-29T07:02:52.159Z,546.30
2022-07-29T07:05:18.966Z,488.52
2022-07-29T07:07:45.741Z,533.65
2022-07-29T07:10:12.460Z,549.65
2022-07-29T07:12:39.185Z,524.55
2022-07-29T07:15:06.938Z,450.45
2022-07-29T07:17:33.732Z,504.25
2022-07-29T07:20:00.535Z,480.67
2022-07-29T07:22:27.265Z,417.50
2022-07-29T07:24:54.088Z,410.42
2022-07-29T07:27:20.833Z,335.50
2022-07-29T07:29:47.574Z,320.40
2022-07-29T07:32:17.041Z,332.55
2022-07-29T07:34:44.591Z,332.55
2022-07-29T07:37:11.457Z,331.55
2022-07-29T07:39:38.228Z,266.42
2022-07-29T07:42:05.107Z,279.80
2022-07-29T07:44:31.925Z,219.32
2022-07-29T07:46:59.255Z,183.20
2022-07-29T07:49:30.752Z,158.23
2022-07-29T07:51:57.637Z,141.38
2022-07-29T07:54:24.440Z,97.65
2022-07-29T07:56:53.056Z,90.95
2022-07-29T07:59:20.141Z,98.60
2022-07-29T08:01:47.837Z,102.40
2022-07-29T08:04:27.289Z,104.75
2022-07-29T08:06:56.983Z,79.18
2022-07-29T08:09:30.323Z,75.57
2022-07-29T08:11:59.740Z,61.65
2022-07-29T08:14:26.651Z,42.47
2022-07-29T08:16:53.431Z,50.67
2022-07-29T08:19:20.583Z,36.75
2022-07-29T08:21:47.411Z,43.78
2022-07-29T08:24:32.529Z,28.77
2022-07-29T08:26:59.390Z,30.02
2022-07-29T08:29:26.145Z,30.23
2022-07-29T08:31:53.211Z,36.88
2022-07-29T08:34:25.683Z,41.35
2022-07-29T08:36:55.989Z,35.20
2022-07-29T08:39:23.643Z,38.50
2022-07-29T08:41:56.818Z,40.65
2022-07-29T08:44:29.742Z,42.28
2022-07-29T08:46:58.247Z,44.67
2022-07-29T08:49:25.157Z,46.78
2022-07-29T08:51:52.532Z,45.35
2022-07-29T08:54:20.293Z,45.90
2022-07-29T08:56:52.644Z,47.92
2022-07-29T08:59:24.008Z,40.85
2022-07-29T09:01:55.004Z,34.60
2022-07-29T09:04:23.265Z,36.90
2022-07-29T09:06:53.146Z,33.65
2022-07-29T09:09:20.034Z,29.58
2022-07-29T09:11:47.754Z,26.25
2022-07-29T09:14:15.355Z,25.90
2022-07-29T09:16:57.279Z,22.98
2022-07-29T09:19:30.184Z,29.27
2022-07-29T09:22:00.201Z,30.25
2022-07-29T09:24:38.549Z,31.20
2022-07-29T09:27:19.748Z,26.27
2022-07-29T09:29:47.025Z,26.17
2022-07-29T09:32:14.261Z,26.98
2022-07-29T09:34:41.000Z,999.90
2022-07-29T09:37:07.879Z,999.90
2022-07-29T09:39:49.457Z,999.90
2022-07-29T09:42:30.030Z,999.90
2022-07-29T09:44:56.882Z,999.90
2022-07-29T09:47:26.756Z,999.90
2022-07-29T09:49:59.140Z,269.90
2022-07-29T09:52:30.969Z,513.47
2022-07-29T09:55:13.578Z,999.90
2022-07-29T09:57:46.338Z,27.65
2022-07-29T10:00:20.421Z,999.90
2022-07-29T10:02:48.829Z,26.45
2022-07-29T10:05:22.079Z,24.85
2022-07-29T10:07:57.771Z,25.73
2022-07-29T10:10:37.634Z,26.00
2022-07-29T10:13:12.174Z,27.02
2022-07-29T10:15:47.249Z,27.05
2022-07-29T10:18:15.505Z,25.77
2022-07-29T10:20:42.837Z,26.98
2022-07-29T10:23:10.586Z,27.25
2022-07-29T10:25:37.764Z,23.75
2022-07-29T10:28:06.486Z,21.92
2022-07-29T10:30:33.445Z,22.63
2022-07-29T10:33:47.421Z,22.90
2022-07-29T10:36:53.546Z,24.67
2022-07-29T10:40:33.369Z,26.00
2022-07-29T10:43:20.185Z,26.13
2022-07-29T10:45:50.179Z,26.95
2022-07-29T10:48:17.261Z,27.80
2022-07-29T10:51:04.816Z,26.70
2022-07-29T10:53:54.029Z,26.63
2022-07-29T10:56:35.660Z,28.20
2022-07-29T10:59:21.696Z,28.35
2022-07-29T11:01:56.711Z,27.77
2022-07-29T11:04:45.123Z,27.30
2022-07-29T11:07:13.538Z,26.40
2022-07-29T11:09:41.998Z,25.73
2022-07-29T11:12:39.355Z,23.92
2022-07-29T11:15:18.241Z,24.58
2022-07-29T11:17:59.461Z,25.77
2022-07-29T11:20:44.247Z,24.60
2022-07-29T11:23:40.214Z,23.63
2022-07-29T11:26:23.253Z,27.20
2022-07-29T11:28:58.585Z,22.20
2022-07-29T11:31:44.788Z,24.95
2022-07-29T11:34:33.374Z,24.92
2022-07-29T11:37:10.542Z,22.23
2022-07-29T11:39:40.072Z,24.98
2022-07-29T11:42:32.211Z,23.38
2022-07-29T11:45:44.788Z,23.35
2022-07-29T11:48:28.334Z,21.65
2022-07-29T11:50:53.714Z,22.92
2022-07-29T11:53:21.230Z,22.02
2022-07-29T11:55:58.273Z,24.33
2022-07-29T11:58:28.259Z,999.90
2022-07-29T12:00:56.177Z,999.90
2022-07-29T12:03:35.119Z,999.90
2022-07-29T12:06:13.318Z,999.90
2022-07-29T12:08:44.604Z,999.90
2022-07-29T12:11:20.364Z,999.90
2022-07-29T12:13:49.169Z,999.90
2022-07-29T12:16:16.423Z,999.90
2022-07-29T12:19:02.488Z,999.90
2022-07-29T12:21:56.400Z,270.23
2022-07-29T12:24:26.558Z,999.90
2022-07-29T12:26:59.552Z,24.80
2022-07-29T12:29:34.814Z,24.63
2022-07-29T12:32:07.042Z,25.67
2022-07-29T12:34:41.988Z,21.33
2022-07-29T12:37:11.041Z,22.88
2022-07-29T12:39:38.126Z,21.75
2022-07-29T12:42:18.281Z,22.20
2022-07-29T12:44:51.115Z,25.05
2022-07-29T12:47:19.352Z,999.90
2022-07-29T12:49:47.664Z,999.90
2022-07-29T12:52:32.682Z,999.90
2022-07-29T12:54:59.791Z,999.90
2022-07-29T12:57:26.807Z,999.90
2022-07-29T13:00:13.943Z,999.90
2022-07-29T13:02:43.400Z,999.90
2022-07-29T13:05:12.134Z,999.90
2022-07-29T13:07:55.432Z,999.90
2022-07-29T13:10:24.889Z,999.90
2022-07-29T13:13:15.938Z,999.90
2022-07-29T13:15:50.316Z,999.90
2022-07-29T13:18:32.422Z,999.90
2022-07-29T13:21:13.440Z,999.90
2022-07-29T13:23:40.338Z,757.85
2022-07-29T13:26:12.659Z,30.40
2022-07-29T13:28:39.911Z,25.92
2022-07-29T13:31:06.740Z,27.25
2022-07-29T13:33:33.620Z,25.25
2022-07-29T13:36:00.379Z,27.98
2022-07-29T13:38:31.110Z,26.63
2022-07-29T13:40:58.765Z,27.23
2022-07-29T13:43:25.516Z,26.85
2022-07-29T13:45:52.902Z,30.80
2022-07-29T13:48:19.676Z,29.88
2022-07-29T13:50:47.528Z,26.35
2022-07-29T13:53:17.967Z,26.75
2022-07-29T13:55:46.065Z,27.15
2022-07-29T13:58:13.036Z,28.02
2022-07-29T14:00:39.820Z,31.23
2022-07-29T14:03:07.299Z,27.60
2022-07-29T14:05:34.078Z,29.23
2022-07-29T14:08:00.947Z,29.35
2022-07-29T14:10:27.820Z,30.15
2022-07-29T14:12:54.626Z,30.83
2022-07-29T14:15:21.754Z,28.83
2022-07-29T14:17:48.535Z,34.08
2022-07-29T14:20:16.547Z,32.83
2022-07-29T14:22:44.909Z,30.02
2022-07-29T14:25:15.076Z,31.23
2022-07-29T14:27:44.235Z,29.70
2022-07-29T14:30:11.698Z,24.02
2022-07-29T14:32:38.440Z,27.75
2022-07-29T14:35:07.263Z,25.15
2022-07-29T14:37:39.368Z,27.00
2022-07-29T14:40:08.993Z,30.65
2022-07-29T14:42:36.989Z,27.77
2022-07-29T14:45:06.449Z,32.00
2022-07-29T14:47:33.364Z,31.15
2022-07-29T14:50:00.356Z,29.65
2022-07-29T14:52:27.108Z,30.10
2022-07-29T14:54:53.861Z,33.35
2022-07-29T14:57:20.808Z,34.30
2022-07-29T14:59:47.650Z,31.25
2022-07-29T15:02:14.446Z,33.38
2022-07-29T15:04:41.242Z,30.75
2022-07-29T15:07:08.241Z,27.92
2022-07-29T15:09:36.241Z,29.75
2022-07-29T15:12:07.728Z,28.33
2022-07-29T15:14:34.705Z,25.23
2022-07-29T15:17:01.449Z,29.02
2022-07-29T15:19:31.471Z,30.20
2022-07-29T15:21:59.765Z,26.88
2022-07-29T15:24:27.094Z,30.60
2022-07-29T15:26:54.707Z,28.27
2022-07-29T15:29:22.161Z,29.55
2022-07-29T15:31:49.124Z,29.83
2022-07-29T15:34:16.142Z,26.60
2022-07-29T15:36:51.923Z,29.15
2022-07-29T15:39:20.846Z,29.65
2022-07-29T15:41:47.833Z,25.65
2022-07-29T15:44:14.580Z,26.90
2022-07-29T15:47:00.342Z,28.75
2022-07-29T15:49:47.970Z,28.05
2022-07-29T15:52:25.940Z,28.30
2022-07-29T15:54:57.484Z,27.77
2022-07-29T15:57:25.402Z,25.00
2022-07-29T15:59:52.491Z,27.45
2022-07-29T16:02:19.521Z,27.88
2022-07-29T16:04:46.305Z,28.05
2022-07-29T16:07:14.216Z,28.13
2022-07-29T16:09:42.119Z,27.63
2022-07-29T16:12:10.585Z,26.88
2022-07-29T16:14:42.515Z,24.98
2022-07-29T16:17:09.250Z,27.50
2022-07-29T16:19:41.942Z,28.67
2022-07-29T16:22:08.843Z,26.33
2022-07-29T16:24:35.615Z,27.92
2022-07-29T16:27:02.412Z,26.20
2022-07-29T16:29:29.290Z,28.10
2022-07-29T16:31:56.164Z,28.30
2022-07-29T16:34:23.001Z,25.42
2022-07-29T16:36:49.725Z,28.20
2022-07-29T16:39:16.535Z,30.48
2022-07-29T16:41:43.265Z,25.05
2022-07-29T16:44:10.029Z,28.15
2022-07-29T16:46:37.333Z,29.65
2022-07-29T16:49:05.957Z,27.60
2022-07-29T16:51:32.900Z,29.60
2022-07-29T16:53:59.652Z,32.15
2022-07-29T16:56:26.437Z,30.17
2022-07-29T16:58:53.171Z,27.88
2022-07-29T17:01:19.965Z,29.38
2022-07-29T17:04:13.245Z,28.50
2022-07-29T17:06:41.395Z,30.30
2022-07-29T17:09:10.849Z,31.70
2022-07-29T17:11:52.402Z,29.75
2022-07-29T17:14:27.010Z,31.50
2022-07-29T17:17:01.132Z,33.05
2022-07-29T17:19:35.386Z,33.03
2022-07-29T17:22:18.656Z,31.98
2022-07-29T17:24:46.439Z,32.10
2022-07-29T17:27:14.488Z,32.90
2022-07-29T17:29:41.418Z,32.70
2022-07-29T17:32:09.716Z,31.20
2022-07-29T17:34:38.425Z,29.65
2022-07-29T17:37:07.841Z,31.83
2022-07-29T17:39:35.486Z,27.05
2022-07-29T17:42:04.362Z,26.33
2022-07-29T17:44:31.353Z,32.00
2022-07-29T17:46:59.704Z,33.92
2022-07-29T17:49:27.205Z,34.17
2022-07-29T17:51:57.677Z,32.92
2022-07-29T17:54:27.765Z,33.25
2022-07-29T17:56:54.506Z,31.15
2022-07-29T17:59:21.741Z,32.83
2022-07-29T18:01:48.603Z,30.75
2022-07-29T18:04:20.025Z,29.08
2022-07-29T18:06:46.956Z,29.88
2022-07-29T18:09:13.746Z,31.45
2022-07-29T18:11:40.590Z,30.42
2022-07-29T18:14:11.260Z,29.95
2022-07-29T18:16:38.390Z,30.15
2022-07-29T18:19:05.336Z,30.95
2022-07-29T18:21:45.655Z,31.40
2022-07-29T18:24:18.928Z,30.92
2022-07-29T18:26:45.686Z,30.25
2022-07-29T18:29:12.436Z,31.00
2022-07-29T18:31:40.989Z,31.88
2022-07-29T18:34:07.864Z,27.65
2022-07-29T18:36:34.663Z,31.58
2022-07-29T18:39:01.425Z,26.80
2022-07-29T18:41:28.177Z,30.30
2022-07-29T18:43:54.961Z,30.40
2022-07-29T18:46:21.793Z,27.58
2022-07-29T18:48:48.616Z,30.63
2022-07-29T18:51:15.739Z,30.50
2022-07-29T18:53:43.290Z,28.77
2022-07-29T18:56:10.106Z,29.20
2022-07-29T18:58:38.213Z,26.33
2022-07-29T19:01:05.777Z,25.27
2022-07-29T19:03:32.645Z,24.98
2022-07-29T19:05:59.464Z,25.42
2022-07-29T19:08:26.324Z,25.45
2022-07-29T19:10:53.424Z,23.80
2022-07-29T19:13:20.293Z,24.77
2022-07-29T19:15:47.155Z,25.98
2022-07-29T19:18:13.949Z,25.83
2022-07-29T19:20:41.919Z,25.55
2022-07-29T19:23:09.230Z,27.17
2022-07-29T19:25:37.289Z,30.30
2022-07-29T19:28:20.193Z,29.90
2022-07-29T19:30:46.961Z,25.90
2022-07-29T19:33:17.310Z,40.08
2022-07-29T19:35:45.240Z,40.45
2022-07-29T19:38:12.705Z,43.38
2022-07-29T19:40:39.646Z,26.20
2022-07-29T19:43:50.022Z,30.98
2022-07-29T19:45:53.928Z,45.03
2022-07-29T19:48:20.674Z,27.60
2022-07-29T19:50:47.602Z,46.35
2022-07-29T19:53:14.473Z,49.10
2022-07-29T19:55:42.375Z,60.40
2022-07-29T19:58:09.199Z,63.85
2022-07-29T20:00:35.982Z,81.45
2022-07-29T20:03:04.577Z,51.70
2022-07-29T20:05:31.699Z,81.10
2022-07-29T20:07:58.531Z,73.28
2022-07-29T20:10:25.445Z,71.05
2022-07-29T20:12:53.155Z,71.03
2022-07-29T20:15:22.206Z,77.03
2022-07-29T20:17:49.767Z,76.25
2022-07-29T20:20:18.602Z,54.63
2022-07-29T20:22:45.443Z,63.60
2022-07-29T20:25:13.362Z,65.30
2022-07-29T20:27:40.549Z,67.85
2022-07-29T20:30:09.004Z,67.40
2022-07-29T20:32:37.941Z,70.93
2022-07-29T20:35:05.038Z,88.30
2022-07-29T20:37:32.570Z,70.18
2022-07-29T20:39:59.323Z,89.25
2022-07-29T20:42:26.059Z,60.30
2022-07-29T20:44:53.871Z,88.10
2022-07-29T20:47:22.254Z,92.35
2022-07-29T20:49:49.161Z,88.93
2022-07-29T20:52:18.679Z,85.63
2022-07-29T20:54:49.018Z,86.55
2022-07-29T20:57:15.860Z,104.28
2022-07-29T20:59:45.800Z,113.68
2022-07-29T21:02:12.692Z,79.82
2022-07-29T21:04:41.437Z,142.32
2022-07-29T21:07:08.161Z,84.60
2022-07-29T21:09:34.917Z,61.72
2022-07-29T21:12:02.111Z,77.22
2022-07-29T21:14:40.938Z,103.55
2022-07-29T21:17:08.060Z,67.85
2022-07-29T21:19:35.580Z,90.40
2022-07-29T21:22:03.089Z,127.78
2022-07-29T21:24:29.900Z,62.55
2022-07-29T21:27:21.501Z,115.35
2022-07-29T21:32:30.035Z,96.28
2022-07-29T21:34:57.918Z,127.05
2022-07-29T21:37:24.704Z,110.93
2022-07-29T21:39:51.647Z,131.57
2022-07-29T21:42:18.669Z,103.75
2022-07-29T21:44:45.416Z,65.03
2022-07-29T21:47:12.223Z,53.85
2022-07-29T21:49:39.369Z,105.15
2022-07-29T21:52:07.896Z,110.68
2022-07-29T21:54:35.976Z,84.25
2022-07-29T21:57:03.774Z,63.28
2022-07-29T21:59:31.751Z,92.75
2022-07-29T22:02:01.820Z,168.40
2022-07-29T22:04:29.666Z,80.97
2022-07-29T22:06:58.771Z,102.40
2022-07-29T22:09:26.505Z,91.35
2022-07-29T22:11:54.211Z,127.75
2022-07-29T22:14:21.400Z,140.50
2022-07-29T22:16:48.860Z,122.85
2022-07-29T22:19:15.655Z,120.95
2022-07-29T22:21:42.985Z,139.13
2022-07-29T22:24:10.558Z,160.10
2022-07-29T22:26:38.301Z,169.73
2022-07-29T22:29:05.575Z,174.50
2022-07-29T22:31:32.373Z,201.02
2022-07-29T22:33:59.148Z,222.50
2022-07-29T22:36:26.354Z,316.60
2022-07-29T22:38:53.104Z,431.50
2022-07-29T22:41:19.846Z,213.40
2022-07-29T22:43:46.620Z,233.98
2022-07-29T22:46:13.414Z,444.90
2022-07-29T22:48:40.258Z,240.27
2022-07-29T22:51:07.057Z,413.52
2022-07-29T22:53:33.936Z,480.00
2022-07-29T22:56:00.687Z,424.77
2022-07-29T22:58:27.495Z,480.05
2022-07-29T23:00:54.474Z,286.67
2022-07-29T23:03:22.489Z,481.95
2022-07-29T23:05:51.440Z,492.77
2022-07-29T23:08:19.482Z,508.33
2022-07-29T23:10:46.851Z,503.25
2022-07-29T23:13:13.954Z,475.75
2022-07-29T23:15:41.317Z,465.27
2022-07-29T23:18:08.188Z,529.20
2022-07-29T23:20:35.204Z,528.22
2022-07-29T23:23:01.936Z,534.00
2022-07-29T23:25:28.945Z,492.50
2022-07-29T23:27:55.675Z,453.08
2022-07-29T23:30:22.569Z,496.98
2022-07-29T23:32:49.395Z,472.90
2022-07-29T23:35:16.166Z,510.27
2022-07-29T23:37:42.925Z,509.42
2022-07-29T23:40:14.223Z,527.95
2022-07-29T23:45:10.907Z,558.13
2022-07-29T23:47:37.904Z,555.55
2022-07-29T23:50:07.785Z,563.65
2022-07-29T23:52:35.624Z,551.00
2022-07-29T23:55:37.099Z,479.30
2022-07-29T23:57:49.746Z,534.55
